createdAt,value
2023-01-13T00:02:11.190Z,28.45
2023-01-13T00:06:19.178Z,33.78
2023-01-13T00:10:20.950Z,26.15
2023-01-13T00:14:22.925Z,23.02
2023-01-13T00:18:25.454Z,25.25
2023-01-13T00:22:27.165Z,23.92
2023-01-13T00:26:35.753Z,26.83
2023-01-13T00:30:38.543Z,26.90
2023-01-13T00:34:40.308Z,26.17
2023-01-13T00:38:43.194Z,30.10
2023-01-13T00:43:03.550Z,22.70
2023-01-13T00:47:05.421Z,18.83
2023-01-13T00:51:17.080Z,27.45
2023-01-13T00:55:18.764Z,24.92
2023-01-13T00:59:20.578Z,25.85
2023-01-13T01:03:22.481Z,29.83
2023-01-13T01:07:24.177Z,25.20
2023-01-13T01:11:31.368Z,35.25
2023-01-13T01:15:33.101Z,29.33
2023-01-13T01:19:37.533Z,39.78
2023-01-13T01:23:40.329Z,16.85
2023-01-13T01:27:42.041Z,21.98
2023-01-13T01:31:44.193Z,27.38
2023-01-13T01:35:46.035Z,22.65
2023-01-13T01:39:47.778Z,27.55
2023-01-13T01:44:02.548Z,25.85
2023-01-13T01:48:06.149Z,26.95
2023-01-13T01:52:20.395Z,45.72
2023-01-13T01:56:22.200Z,27.33
2023-01-13T02:00:26.452Z,33.67
2023-01-13T02:04:36.436Z,24.80
2023-01-13T02:08:40.633Z,29.00
2023-01-13T02:12:44.804Z,31.58
2023-01-13T02:17:11.258Z,29.67
2023-01-13T02:22:03.074Z,35.30
2023-01-13T02:26:28.210Z,30.40
2023-01-13T02:31:06.840Z,32.63
2023-01-13T02:35:18.239Z,29.85
2023-01-13T02:39:51.101Z,41.78
2023-01-13T02:44:07.252Z,34.33
2023-01-13T02:48:10.895Z,41.08
2023-01-13T02:52:19.530Z,25.02
2023-01-13T02:56:24.220Z,23.08
2023-01-13T03:00:27.586Z,27.98
2023-01-13T03:04:46.498Z,28.25
2023-01-13T03:08:59.150Z,37.90
2023-01-13T03:13:01.081Z,24.65
2023-01-13T03:17:22.082Z,27.13
2023-01-13T03:21:44.740Z,31.63
2023-01-13T03:26:11.122Z,31.00
2023-01-13T03:30:18.124Z,31.67
2023-01-13T03:34:25.163Z,25.80
2023-01-13T03:38:34.157Z,18.77
2023-01-13T03:42:38.415Z,30.42
2023-01-13T03:47:06.476Z,16.73
2023-01-13T03:51:14.008Z,21.77
2023-01-13T03:55:19.919Z,20.97
2023-01-13T03:59:28.118Z,15.10
2023-01-13T04:03:38.459Z,14.73
2023-01-13T04:07:59.191Z,16.27
2023-01-13T04:12:08.315Z,14.70
2023-01-13T04:16:11.478Z,12.50
2023-01-13T04:20:13.783Z,11.18
2023-01-13T04:24:15.538Z,21.10
2023-01-13T04:28:18.833Z,17.42
2023-01-13T04:32:20.547Z,13.55
2023-01-13T04:36:27.605Z,10.25
2023-01-13T04:40:29.492Z,15.98
2023-01-13T04:44:35.250Z,10.90
2023-01-13T04:48:36.941Z,16.55
2023-01-13T04:52:39.393Z,15.98
2023-01-13T04:56:41.103Z,8.02
2023-01-13T05:00:42.991Z,14.38
2023-01-13T05:04:44.720Z,13.13
2023-01-13T05:08:46.518Z,11.73
2023-01-13T05:13:06.854Z,16.30
2023-01-13T05:17:11.013Z,19.48
2023-01-13T05:21:32.673Z,10.05
2023-01-13T05:25:37.938Z,22.00
2023-01-13T05:29:39.699Z,21.02
2023-01-13T05:33:41.417Z,15.80
2023-01-13T05:37:44.756Z,14.27
2023-01-13T05:42:04.977Z,24.48
2023-01-13T05:46:10.189Z,13.40
2023-01-13T05:50:11.991Z,11.68
2023-01-13T05:54:13.887Z,13.10
2023-01-13T05:58:17.319Z,7.30
2023-01-13T06:02:19.036Z,14.05
2023-01-13T06:06:21.756Z,8.90
2023-01-13T06:10:24.231Z,10.48
2023-01-13T06:14:25.970Z,20.85
2023-01-13T06:18:27.956Z,10.60
2023-01-13T06:22:35.791Z,14.82
2023-01-13T06:26:40.737Z,13.32
2023-01-13T06:30:46.784Z,9.50
2023-01-13T06:34:58.291Z,20.90
2023-01-13T06:39:02.104Z,19.50
2023-01-13T06:43:17.147Z,17.98
2023-01-13T06:47:19.495Z,22.92
2023-01-13T06:51:21.211Z,15.15
2023-01-13T06:55:22.954Z,11.93
2023-01-13T06:59:25.298Z,17.90
2023-01-13T07:03:26.992Z,13.38
2023-01-13T07:07:28.704Z,14.82
2023-01-13T07:11:30.411Z,18.25
2023-01-13T07:15:32.137Z,30.02
2023-01-13T07:19:33.865Z,16.27
2023-01-13T07:23:40.701Z,14.48
2023-01-13T07:27:42.441Z,22.80
2023-01-13T07:31:44.640Z,14.40
2023-01-13T07:35:48.087Z,9.13
2023-01-13T07:39:50.340Z,21.42
2023-01-13T07:43:52.667Z,13.07
2023-01-13T07:47:54.423Z,21.48
2023-01-13T07:51:56.167Z,15.32
2023-01-13T07:55:59.184Z,18.15
2023-01-13T08:00:00.902Z,19.42
2023-01-13T08:04:02.937Z,7.03
2023-01-13T08:08:04.805Z,26.02
2023-01-13T08:12:25.092Z,9.57
2023-01-13T08:16:26.878Z,13.65
2023-01-13T08:20:28.716Z,23.70
2023-01-13T08:24:30.458Z,15.20
2023-01-13T08:28:32.513Z,19.40
2023-01-13T08:32:34.278Z,11.52
2023-01-13T08:36:36.169Z,18.02
2023-01-13T08:40:40.246Z,21.52
2023-01-13T08:44:42.006Z,16.67
2023-01-13T08:48:43.741Z,16.23
2023-01-13T08:52:45.589Z,23.85
2023-01-13T08:56:47.454Z,15.32
2023-01-13T09:00:49.347Z,15.55
2023-01-13T09:04:51.587Z,21.77
2023-01-13T09:08:53.477Z,21.63
2023-01-13T09:13:13.563Z,30.55
2023-01-13T09:17:15.621Z,12.55
2023-01-13T09:21:19.830Z,19.65
2023-01-13T09:25:21.616Z,20.42
2023-01-13T09:29:23.981Z,22.35
2023-01-13T09:33:44.420Z,16.42
2023-01-13T09:37:46.186Z,20.35
2023-01-13T09:42:12.178Z,14.18
2023-01-13T09:46:43.365Z,18.70
2023-01-13T09:50:53.977Z,17.60
2023-01-13T09:55:06.051Z,16.00
2023-01-13T09:59:11.483Z,18.52
2023-01-13T10:03:22.345Z,24.75
2023-01-13T10:07:24.249Z,15.20
2023-01-13T10:11:55.571Z,14.95
2023-01-13T10:16:13.977Z,13.20
2023-01-13T10:20:26.143Z,14.35
2023-01-13T10:25:00.272Z,13.15
2023-01-13T10:29:02.041Z,9.60
2023-01-13T10:33:11.931Z,17.73
2023-01-13T10:37:25.946Z,13.20
2023-01-13T10:41:28.319Z,11.10
2023-01-13T10:45:30.053Z,17.65
2023-01-13T10:49:38.676Z,15.57
2023-01-13T10:54:03.081Z,10.10
2023-01-13T10:58:21.525Z,17.63
2023-01-13T11:02:32.015Z,15.43
2023-01-13T11:06:35.497Z,16.25
2023-01-13T11:10:47.083Z,8.93
2023-01-13T11:14:49.780Z,29.20
2023-01-13T11:19:13.155Z,13.65
2023-01-13T11:23:25.471Z,11.10
2023-01-13T11:27:43.247Z,18.98
2023-01-13T11:32:00.331Z,11.13
2023-01-13T11:36:13.662Z,17.67
2023-01-13T11:40:31.334Z,14.27
2023-01-13T11:44:41.536Z,21.65
2023-01-13T11:48:43.823Z,9.18
2023-01-13T11:53:07.732Z,13.00
2023-01-13T11:57:39.953Z,15.45
2023-01-13T12:02:12.806Z,13.70
2023-01-13T12:06:30.142Z,13.05
2023-01-13T12:11:01.209Z,16.00
2023-01-13T12:15:24.136Z,14.23
2023-01-13T12:19:29.248Z,19.00
2023-01-13T12:23:38.835Z,14.07
2023-01-13T12:27:51.767Z,15.82
2023-01-13T12:31:53.953Z,10.13
2023-01-13T12:36:23.217Z,14.77
2023-01-13T12:40:42.734Z,9.00
2023-01-13T12:45:12.465Z,15.82
2023-01-13T12:49:23.412Z,11.95
2023-01-13T12:53:36.376Z,13.18
2023-01-13T12:57:39.599Z,16.48
2023-01-13T13:01:41.450Z,12.77
2023-01-13T13:05:48.930Z,13.93
2023-01-13T13:09:54.935Z,17.10
2023-01-13T13:13:56.711Z,13.13
2023-01-13T13:18:17.007Z,12.32
2023-01-13T13:22:21.635Z,7.28
2023-01-13T13:26:26.038Z,11.30
2023-01-13T13:30:35.860Z,15.15
2023-01-13T13:34:43.937Z,18.65
2023-01-13T13:39:32.051Z,8.82
2023-01-13T13:44:03.727Z,27.77
2023-01-13T13:48:20.909Z,10.30
2023-01-13T13:52:31.842Z,11.18
2023-01-13T13:56:40.745Z,16.45
2023-01-13T14:00:47.957Z,13.98
2023-01-13T14:04:49.710Z,17.27
2023-01-13T14:08:51.451Z,7.50
2023-01-13T14:12:53.148Z,17.73
2023-01-13T14:16:55.147Z,17.98
2023-01-13T14:21:04.810Z,11.00
2023-01-13T14:25:28.296Z,11.60
2023-01-13T14:29:30.113Z,12.02
2023-01-13T14:33:47.386Z,15.93
2023-01-13T14:37:50.586Z,13.30
2023-01-13T14:41:53.478Z,12.02
2023-01-13T14:46:01.159Z,11.00
2023-01-13T14:50:19.327Z,19.33
2023-01-13T14:54:50.385Z,15.63
2023-01-13T14:58:52.105Z,11.55
2023-01-13T15:02:53.831Z,13.40
2023-01-13T15:06:57.438Z,15.57
2023-01-13T15:11:01.580Z,15.30
2023-01-13T15:15:06.658Z,11.38
2023-01-13T15:19:10.169Z,8.57
2023-01-13T15:23:12.365Z,18.55
2023-01-13T15:27:19.515Z,12.13
2023-01-13T15:31:21.919Z,7.85
2023-01-13T15:35:26.241Z,11.07
2023-01-13T15:39:27.995Z,14.73
2023-01-13T15:43:48.325Z,24.48
2023-01-13T15:47:50.103Z,15.60
2023-01-13T15:51:51.983Z,17.13
2023-01-13T15:55:58.541Z,12.85
2023-01-13T16:00:14.522Z,13.68
2023-01-13T16:04:16.208Z,16.17
2023-01-13T16:08:22.665Z,9.30
2023-01-13T16:12:24.495Z,14.98
2023-01-13T16:16:28.589Z,19.08
2023-01-13T16:20:30.859Z,11.60
2023-01-13T16:24:32.727Z,9.00
2023-01-13T16:28:35.971Z,13.27
2023-01-13T16:32:37.764Z,15.00
2023-01-13T16:36:39.711Z,7.65
2023-01-13T16:40:41.438Z,9.48
2023-01-13T16:44:44.195Z,5.38
2023-01-13T16:48:46.436Z,17.63
2023-01-13T16:52:48.339Z,12.98
2023-01-13T16:56:50.073Z,17.30
2023-01-13T17:00:53.029Z,6.63
2023-01-13T17:04:54.855Z,8.30
2023-01-13T17:09:01.429Z,6.63
2023-01-13T17:13:14.805Z,7.63
2023-01-13T17:17:25.750Z,7.85
2023-01-13T17:21:27.765Z,6.95
2023-01-13T17:25:29.658Z,7.25
2023-01-13T17:29:32.967Z,4.78
2023-01-13T17:33:37.246Z,7.70
2023-01-13T17:37:38.976Z,4.20
2023-01-13T17:41:40.721Z,14.05
2023-01-13T17:45:42.498Z,16.88
2023-01-13T17:49:44.331Z,11.43
2023-01-13T17:53:46.679Z,7.45
2023-01-13T17:57:48.399Z,5.35
2023-01-13T18:01:51.212Z,15.00
2023-01-13T18:05:52.963Z,6.45
2023-01-13T18:09:54.703Z,10.88
2023-01-13T18:14:00.309Z,5.40
2023-01-13T18:18:02.069Z,8.00
2023-01-13T18:22:22.385Z,6.50
2023-01-13T18:26:42.693Z,12.68
2023-01-13T18:30:44.499Z,13.27
2023-01-13T18:34:46.367Z,12.57
2023-01-13T18:38:49.865Z,15.80
2023-01-13T18:42:51.741Z,12.40
2023-01-13T18:46:53.554Z,13.32
2023-01-13T18:50:55.251Z,7.35
2023-01-13T18:54:57.015Z,10.95
2023-01-13T18:58:59.270Z,7.38
2023-01-13T19:07:08.820Z,8.68
2023-01-13T19:11:10.586Z,15.38
2023-01-13T19:15:12.335Z,4.47
2023-01-13T19:19:14.111Z,12.02
2023-01-13T19:23:15.920Z,9.32
2023-01-13T19:27:19.526Z,8.30
2023-01-13T19:31:21.308Z,12.88
2023-01-13T19:35:23.046Z,7.30
2023-01-13T19:39:25.135Z,4.43
2023-01-13T19:43:46.019Z,10.73
2023-01-13T19:47:47.859Z,6.07
2023-01-13T19:51:50.750Z,9.85
2023-01-13T19:55:52.980Z,8.85
2023-01-13T19:59:54.658Z,4.45
2023-01-13T20:04:02.860Z,11.93
2023-01-13T20:08:04.642Z,5.82
2023-01-13T20:12:11.656Z,7.78
2023-01-13T20:16:13.475Z,10.52
2023-01-13T20:20:16.250Z,12.35
2023-01-13T20:24:18.046Z,10.43
2023-01-13T20:28:20.105Z,15.57
2023-01-13T20:32:21.890Z,9.27
2023-01-13T20:36:31.330Z,8.57
2023-01-13T20:40:33.325Z,10.10
2023-01-13T20:44:35.320Z,11.65
2023-01-13T20:48:37.053Z,20.25
2023-01-13T20:52:38.982Z,8.65
2023-01-13T20:56:40.993Z,11.90
2023-01-13T21:00:42.793Z,12.25
2023-01-13T21:04:44.584Z,10.93
2023-01-13T21:08:50.274Z,8.35
2023-01-13T21:13:10.378Z,14.40
2023-01-13T21:17:32.645Z,13.70
2023-01-13T21:21:34.459Z,10.57
2023-01-13T21:25:39.518Z,14.98
2023-01-13T21:29:41.299Z,17.77
2023-01-13T21:33:43.831Z,8.00
2023-01-13T21:37:45.642Z,10.80
2023-01-13T21:42:05.958Z,14.13
2023-01-13T21:46:35.549Z,15.18
2023-01-13T21:50:38.588Z,10.50
2023-01-13T21:55:00.927Z,18.85
2023-01-13T21:59:02.876Z,10.82
2023-01-13T22:03:06.402Z,14.80
2023-01-13T22:07:08.211Z,7.68
2023-01-13T22:11:10.091Z,13.43
2023-01-13T22:15:15.009Z,19.75
2023-01-13T22:19:18.332Z,9.65
2023-01-13T22:23:21.451Z,12.63
2023-01-13T22:27:25.544Z,8.30
2023-01-13T22:31:27.385Z,10.52
2023-01-13T22:35:29.164Z,10.63
2023-01-13T22:39:31.353Z,10.95
2023-01-13T22:43:34.278Z,11.20
2023-01-13T22:47:36.075Z,8.25
2023-01-13T22:51:37.823Z,20.83
2023-01-13T22:55:39.599Z,12.60
2023-01-13T22:59:41.343Z,12.38
2023-01-13T23:03:46.466Z,10.68
2023-01-13T23:07:48.293Z,10.57
2023-01-13T23:11:50.048Z,9.63
2023-01-13T23:15:51.807Z,16.92
2023-01-13T23:19:53.563Z,14.70
2023-01-13T23:23:56.782Z,9.95
2023-01-13T23:27:59.507Z,15.05
2023-01-13T23:32:01.373Z,7.15
2023-01-13T23:36:05.904Z,10.57
2023-01-13T23:40:09.760Z,11.02
2023-01-13T23:44:11.561Z,8.02
2023-01-13T23:48:14.499Z,17.85
2023-01-13T23:52:16.523Z,14.23
2023-01-13T23:56:21.780Z,11.10
